Time;durP1;ratioP1;P1;durP2;ratioP2;P2;SDS_P1;SDS_P2;PMS_P1;PMS_P2;Temp;Humidity;BMP_temperature;BMP_pressure;BME280_temperature;BME280_humidity;BME280_pressure;Samples;Min_cycle;Max_cycle;Signal;HPM_P1;HPM_P2
2023/04/17 07:17:51;;;;;;;20.77;8.23;;;10.30;99.90;;;;;;4896071;29;20218;-72
2023/04/17 07:20:18;;;;;;;22.03;9.63;;;10.30;99.90;;;;;;4898825;29;20220;-71
2023/04/17 07:22:45;;;;;;;20.00;8.83;;;10.40;99.90;;;;;;4898656;29;20218;-71
2023/04/17 07:25:12;;;;;;;17.07;8.13;;;10.40;99.90;;;;;;4898984;29;20214;-71
2023/04/17 07:27:39;;;;;;;20.70;8.67;;;10.40;99.90;;;;;;4894791;29;20216;-70
2023/04/17 07:30:07;;;;;;;18.50;8.00;;;10.40;99.90;;;;;;4897602;29;20210;-70
2023/04/17 07:32:34;;;;;;;16.73;7.80;;;10.30;99.90;;;;;;4897984;29;20213;-70
2023/04/17 07:35:03;;;;;;;18.90;8.07;;;10.30;99.90;;;;;;4898451;29;20214;-69
2023/04/17 07:37:30;;;;;;;20.33;9.53;;;10.40;99.90;;;;;;4898305;29;20301;-71
2023/04/17 07:39:56;;;;;;;18.40;7.73;;;10.40;99.90;;;;;;4898711;29;20220;-71
2023/04/17 07:42:23;;;;;;;18.67;7.97;;;10.40;99.90;;;;;;4898108;29;20215;-70
2023/04/17 07:44:50;;;;;;;18.90;8.43;;;10.40;99.90;;;;;;4898029;29;20242;-71
2023/04/17 07:47:17;;;;;;;18.13;8.50;;;10.40;99.90;;;;;;4898425;29;20665;-74
2023/04/17 07:49:47;;;;;;;20.10;8.27;;;10.50;99.90;;;;;;4898271;29;20210;-71
2023/04/17 07:52:16;;;;;;;19.87;8.83;;;10.50;99.90;;;;;;4897627;29;20274;-71
2023/04/17 07:54:43;;;;;;;26.53;8.77;;;10.60;99.90;;;;;;4898095;29;20242;-72
2023/04/17 07:57:10;;;;;;;18.80;8.43;;;10.60;99.90;;;;;;4898117;29;20210;-71
2023/04/17 07:59:37;;;;;;;21.97;9.23;;;10.70;99.90;;;;;;4897911;29;20297;-71
2023/04/17 08:02:04;;;;;;;20.87;8.80;;;10.70;99.90;;;;;;4897916;29;20210;-71
2023/04/17 08:04:31;;;;;;;19.37;8.17;;;10.70;99.90;;;;;;4897920;29;20248;-72
2023/04/17 08:06:58;;;;;;;15.77;7.50;;;10.90;99.90;;;;;;4898294;29;20218;-71
2023/04/17 08:09:26;;;;;;;18.73;8.33;;;11.00;99.90;;;;;;4898341;29;20210;-72
2023/04/17 08:11:53;;;;;;;18.57;8.57;;;11.00;99.90;;;;;;4898010;29;20316;-73
2023/04/17 08:14:20;;;;;;;21.40;8.70;;;11.10;99.90;;;;;;4897864;29;20237;-71
2023/04/17 08:16:47;;;;;;;19.10;8.70;;;10.90;99.90;;;;;;4897789;29;20225;-72
2023/04/17 08:19:15;;;;;;;17.37;8.27;;;10.80;99.90;;;;;;4898084;29;20210;-72
2023/04/17 08:21:41;;;;;;;20.27;8.43;;;10.70;99.90;;;;;;4898680;29;20618;-72
2023/04/17 08:24:08;;;;;;;20.07;8.37;;;10.70;99.90;;;;;;4897534;29;20333;-75
2023/04/17 08:26:36;;;;;;;19.23;8.90;;;10.70;99.90;;;;;;4897756;29;20658;-74
2023/04/17 08:29:03;;;;;;;16.50;7.80;;;10.80;99.90;;;;;;4897549;29;20214;-72
2023/04/17 08:31:30;;;;;;;20.87;8.97;;;10.70;99.90;;;;;;4897707;29;20210;-73
2023/04/17 08:34:08;;;;;;;;;;;;;;;;;;;;;
2023/04/17 08:51:03;;;;;;;15.97;7.30;;;10.40;99.90;;;;;;5110902;27;20631;-72
2023/04/17 08:53:29;;;;;;;18.83;8.37;;;11.10;99.90;;;;;;5110580;28;20198;-74
2023/04/17 08:55:57;;;;;;;16.63;7.87;;;11.00;99.90;;;;;;5110392;28;20300;-72
2023/04/17 08:58:25;;;;;;;15.60;7.83;;;11.00;99.90;;;;;;5110165;28;20669;-75
2023/04/17 09:00:51;;;;;;;17.90;7.57;;;11.40;99.90;;;;;;5110336;28;20230;-74
2023/04/17 09:03:18;;;;;;;17.87;8.23;;;11.20;99.90;;;;;;5110172;28;20573;-73
2023/04/17 09:05:45;;;;;;;19.10;8.53;;;11.30;99.90;;;;;;5110337;28;20275;-75
2023/04/17 09:08:15;;;;;;;23.37;8.73;;;11.30;99.90;;;;;;5110086;28;20288;-72
2023/04/17 09:10:43;;;;;;;16.53;8.47;;;11.30;99.90;;;;;;5110140;28;20229;-75
2023/04/17 09:13:13;;;;;;;15.23;8.00;;;11.30;99.90;;;;;;5110311;28;20194;-74
2023/04/17 09:15:40;;;;;;;17.80;8.07;;;11.30;99.90;;;;;;5110081;28;20255;-73
2023/04/17 09:18:22;;;;;;;18.57;8.57;;;11.30;99.90;;;;;;5110051;28;20208;-72
2023/04/17 09:20:50;;;;;;;15.63;7.83;;;11.40;99.90;;;;;;5109895;28;20231;-74
2023/04/17 09:23:19;;;;;;;19.17;8.73;;;11.40;99.90;;;;;;5110090;28;20202;-74
2023/04/17 09:25:46;;;;;;;17.23;8.83;;;11.30;99.90;;;;;;5110003;28;20562;-73
2023/04/17 09:28:15;;;;;;;21.00;8.97;;;11.40;99.90;;;;;;5109730;28;20209;-72
2023/04/17 09:30:42;;;;;;;17.67;8.93;;;11.50;99.90;;;;;;5109562;28;20275;-75
2023/04/17 09:33:10;;;;;;;18.40;8.13;;;11.40;99.90;;;;;;5105414;28;20206;-72
2023/04/17 09:35:38;;;;;;;19.90;9.23;;;11.30;99.90;;;;;;5109828;28;20230;-72
2023/04/17 09:38:05;;;;;;;20.07;9.00;;;11.10;99.90;;;;;;5108571;28;20572;-71
2023/04/17 09:40:39;;;;;;;20.73;8.87;;;11.30;99.90;;;;;;5108241;28;20294;-71
2023/04/17 09:43:07;;;;;;;20.70;8.97;;;11.60;99.90;;;;;;5098632;28;20630;-71
2023/04/17 09:45:37;;;;;;;19.23;8.07;;;11.40;99.90;;;;;;5087896;28;20688;-72
2023/04/17 09:48:06;;;;;;;19.67;8.97;;;11.60;99.90;;;;;;5089118;28;20242;-75
2023/04/17 09:50:34;;;;;;;18.70;9.43;;;11.80;99.90;;;;;;5103591;28;20238;-72
2023/04/17 09:53:03;;;;;;;19.83;8.70;;;12.00;99.90;;;;;;5085525;28;20210;-70
2023/04/17 09:55:31;;;;;;;18.40;8.20;;;12.10;99.90;;;;;;5074429;28;20614;-72
2023/04/17 09:58:02;;;;;;;19.20;9.07;;;12.00;99.90;;;;;;5074638;28;20257;-71
2023/04/17 10:00:29;;;;;;;17.47;8.77;;;11.80;99.90;;;;;;5073977;28;20718;-71
2023/04/17 10:02:57;;;;;;;22.50;9.50;;;11.70;99.90;;;;;;5073873;28;20203;-74
2023/04/17 10:05:25;;;;;;;22.63;9.53;;;11.70;99.90;;;;;;5074513;28;20207;-71
2023/04/17 10:07:52;;;;;;;23.60;9.90;;;11.70;99.90;;;;;;5073527;28;20257;-71
2023/04/17 10:10:24;;;;;;;21.57;9.83;;;11.60;99.90;;;;;;5073095;28;20227;-71
2023/04/17 10:12:54;;;;;;;22.30;9.27;;;11.50;99.90;;;;;;5073332;28;20203;-72
2023/04/17 10:15:24;;;;;;;22.00;9.07;;;11.40;99.90;;;;;;5073611;28;20214;-71
2023/04/17 10:17:51;;;;;;;21.90;9.63;;;11.30;99.90;;;;;;5073957;28;20234;-71
2023/04/17 10:20:38;;;;;;;21.43;9.43;;;11.30;99.90;;;;;;5083859;28;20258;-69
2023/04/17 10:23:31;;;;;;;20.33;9.10;;;11.50;99.90;;;;;;5093851;28;20609;-70
2023/04/17 10:26:34;;;;;;;20.93;9.30;;;11.30;99.90;;;;;;5094121;28;20260;-69
2023/04/17 10:29:01;;;;;;;22.87;9.20;;;11.40;99.90;;;;;;5093528;28;20644;-69
2023/04/17 10:32:27;;;;;;;19.33;8.87;;;11.50;99.90;;;;;;5093611;28;20222;-72
2023/04/17 10:34:55;;;;;;;23.30;9.87;;;11.50;99.90;;;;;;5093936;28;20297;-71
2023/04/17 10:38:00;;;;;;;20.70;9.30;;;11.70;99.90;;;;;;5093749;28;20206;-71
2023/04/17 10:40:30;;;;;;;18.80;7.97;;;11.90;99.90;;;;;;5083421;28;20230;-70
2023/04/17 10:43:21;;;;;;;23.10;9.63;;;12.40;99.90;;;;;;5093883;28;20202;-71
2023/04/17 10:46:00;;;;;;;16.83;8.43;;;12.60;99.90;;;;;;5089650;28;20681;-72
2023/04/17 10:48:33;;;;;;;15.77;7.57;;;12.90;99.90;;;;;;5092916;28;20209;-73
2023/04/17 10:51:01;;;;;;;18.80;8.93;;;13.20;99.90;;;;;;5091883;28;20230;-71
2023/04/17 10:53:43;;;;;;;18.77;8.27;;;12.90;99.90;;;;;;5090349;28;20293;-71
2023/04/17 10:56:12;;;;;;;18.53;8.03;;;12.80;99.90;;;;;;5084733;28;20253;-70
2023/04/17 10:58:54;;;;;;;16.17;8.17;;;12.50;99.90;;;;;;5072323;28;20203;-70
2023/04/17 11:01:24;;;;;;;17.20;7.30;;;12.50;99.90;;;;;;5076005;28;20340;-74
2023/04/17 11:03:53;;;;;;;14.23;7.00;;;12.60;99.90;;;;;;5092671;28;20536;-72
2023/04/17 11:06:20;;;;;;;15.40;8.03;;;12.90;99.90;;;;;;5091084;28;20240;-70
2023/04/17 11:08:48;;;;;;;15.17;7.73;;;12.90;99.90;;;;;;5094764;28;20202;-70
2023/04/17 11:11:16;;;;;;;19.20;8.17;;;13.10;99.90;;;;;;5094271;28;20233;-72
2023/04/17 11:13:46;;;;;;;15.63;7.87;;;13.00;99.90;;;;;;5094584;28;20214;-71
2023/04/17 11:16:13;;;;;;;14.47;7.13;;;12.90;99.90;;;;;;5094315;28;20206;-71
2023/04/17 11:18:40;;;;;;;12.20;6.97;;;13.00;99.90;;;;;;5094156;28;20202;-72
2023/04/17 11:21:14;;;;;;;12.43;6.93;;;13.00;99.90;;;;;;5093959;28;20242;-72
2023/04/17 11:23:49;;;;;;;13.43;7.33;;;12.90;99.90;;;;;;5094080;28;20670;-69
2023/04/17 11:26:17;;;;;;;14.57;7.57;;;13.00;99.90;;;;;;5094432;28;20293;-71
2023/04/17 11:28:44;;;;;;;12.97;6.67;;;13.20;99.90;;;;;;5089404;28;20208;-69
2023/04/17 11:31:12;;;;;;;18.67;7.67;;;13.40;99.90;;;;;;5092313;28;20226;-69
2023/04/17 11:33:40;;;;;;;16.00;7.17;;;13.40;99.90;;;;;;5093470;28;20221;-71
2023/04/17 11:36:07;;;;;;;13.60;7.10;;;13.40;99.90;;;;;;5093849;28;20198;-71
2023/04/17 11:38:35;;;;;;;14.73;7.43;;;13.60;99.90;;;;;;5093543;28;20546;-72
2023/04/17 11:41:02;;;;;;;13.23;7.57;;;13.90;99.90;;;;;;5093939;28;20241;-70
2023/04/17 11:43:35;;;;;;;12.37;7.10;;;13.80;99.90;;;;;;5093907;28;20210;-70
2023/04/17 11:46:04;;;;;;;14.40;8.00;;;14.00;99.90;;;;;;5093808;28;20215;-71
2023/04/17 11:48:31;;;;;;;14.20;7.60;;;14.00;99.90;;;;;;5093876;28;20214;-71
2023/04/17 11:51:01;;;;;;;17.47;7.77;;;14.00;99.90;;;;;;5093546;28;20234;-73
2023/04/17 11:53:27;;;;;;;13.97;7.73;;;13.90;99.90;;;;;;5093841;28;20202;-72
2023/04/17 11:56:16;;;;;;;15.20;6.93;;;14.00;99.90;;;;;;5093730;28;20214;-71
2023/04/17 11:58:47;;;;;;;12.97;6.50;;;13.70;99.90;;;;;;5093526;28;20202;-72
2023/04/17 12:01:15;;;;;;;14.23;6.83;;;13.60;99.90;;;;;;5093324;28;20261;-72
2023/04/17 12:03:41;;;;;;;15.27;7.50;;;13.70;99.90;;;;;;5093793;28;20293;-72
2023/04/17 12:06:10;;;;;;;12.37;6.40;;;13.40;99.90;;;;;;5093563;28;20207;-71
2023/04/17 12:08:45;;;;;;;14.57;7.30;;;13.10;99.90;;;;;;5093636;28;20206;-71
2023/04/17 12:11:32;;;;;;;12.50;6.73;;;13.00;99.90;;;;;;5093444;28;20282;-72
2023/04/17 12:14:00;;;;;;;14.47;7.20;;;13.20;99.90;;;;;;5093077;28;20202;-71
2023/04/17 12:16:28;;;;;;;14.17;6.97;;;13.40;99.90;;;;;;5088391;28;20298;-71
2023/04/17 12:18:55;;;;;;;15.23;7.13;;;13.40;99.90;;;;;;5088464;28;20671;-73
2023/04/17 12:21:23;;;;;;;12.73;6.87;;;13.30;99.90;;;;;;5092982;28;20242;-72
2023/04/17 12:23:50;;;;;;;12.47;6.70;;;13.30;99.90;;;;;;5093099;28;20204;-72
2023/04/17 12:26:17;;;;;;;10.13;6.30;;;13.40;99.90;;;;;;5093106;28;20208;-73
2023/04/17 12:28:45;;;;;;;13.67;6.57;;;13.70;99.90;;;;;;5093853;28;20209;-73
2023/04/17 12:31:12;;;;;;;13.47;7.20;;;13.70;99.90;;;;;;5093221;28;20701;-73
2023/04/17 12:33:39;;;;;;;11.97;6.87;;;13.90;99.90;;;;;;5093436;28;20206;-73
2023/04/17 12:36:07;;;;;;;15.13;7.77;;;13.90;99.90;;;;;;5093180;28;20297;-73
2023/04/17 12:38:33;;;;;;;13.40;7.13;;;14.00;99.90;;;;;;5092969;28;20213;-73
2023/04/17 12:41:00;;;;;;;13.03;6.60;;;13.90;99.90;;;;;;5093061;28;20319;-73
2023/04/17 12:43:27;;;;;;;11.73;6.60;;;13.70;99.90;;;;;;5093061;28;20202;-73
2023/04/17 12:45:57;;;;;;;12.70;6.60;;;13.70;99.90;;;;;;5092695;28;20555;-73
2023/04/17 12:48:24;;;;;;;14.70;7.20;;;13.50;99.90;;;;;;5092961;28;20670;-72
2023/04/17 12:50:50;;;;;;;14.47;6.90;;;13.30;99.90;;;;;;5092727;28;20317;-73
2023/04/17 12:53:17;;;;;;;15.73;7.67;;;13.30;99.90;;;;;;5092799;28;20234;-73
2023/04/17 12:55:44;;;;;;;11.07;6.53;;;13.30;99.90;;;;;;5092932;28;20206;-72
2023/04/17 12:58:12;;;;;;;13.03;7.07;;;13.40;99.90;;;;;;5093088;28;20206;-73
2023/04/17 13:00:42;;;;;;;18.37;7.50;;;13.60;99.90;;;;;;5092479;28;20773;-73
2023/04/17 13:03:10;;;;;;;14.07;7.03;;;13.80;99.90;;;;;;5092829;28;20256;-73
2023/04/17 13:05:37;;;;;;;15.93;8.20;;;14.00;99.90;;;;;;5092629;28;20213;-74
2023/04/17 13:08:03;;;;;;;13.47;6.63;;;14.00;99.90;;;;;;5092579;28;20214;-73
2023/04/17 13:10:30;;;;;;;12.23;6.77;;;13.80;99.90;;;;;;5092704;28;20718;-72
2023/04/17 13:12:57;;;;;;;14.53;7.30;;;14.10;99.90;;;;;;5092801;28;20206;-73
2023/04/17 13:15:24;;;;;;;12.20;6.50;;;14.10;99.90;;;;;;5092782;28;20203;-73
2023/04/17 13:17:51;;;;;;;14.73;7.47;;;14.30;99.90;;;;;;5092891;28;20207;-73
2023/04/17 13:20:19;;;;;;;14.13;7.43;;;14.50;99.90;;;;;;5092305;28;20441;-74
2023/04/17 13:22:46;;;;;;;13.47;6.97;;;14.70;99.90;;;;;;5092675;28;20206;-73
2023/04/17 13:25:13;;;;;;;12.30;6.30;;;14.90;99.90;;;;;;5092764;28;20209;-73
2023/04/17 13:27:40;;;;;;;13.77;7.07;;;15.20;99.90;;;;;;5096483;28;20203;-73
2023/04/17 13:30:08;;;;;;;12.57;7.67;;;14.80;99.90;;;;;;5096175;28;20210;-73
2023/04/17 13:32:35;;;;;;;14.60;7.30;;;14.90;99.90;;;;;;5096336;28;20681;-73
2023/04/17 13:35:03;;;;;;;12.37;7.03;;;15.00;99.90;;;;;;5096229;28;20206;-73
2023/04/17 13:37:32;;;;;;;14.33;7.30;;;15.00;99.90;;;;;;5096519;28;20230;-73
2023/04/17 13:39:59;;;;;;;12.70;6.77;;;14.80;99.90;;;;;;5096118;28;20690;-73
2023/04/17 13:42:26;;;;;;;13.37;7.33;;;15.20;99.90;;;;;;5095961;28;20659;-73
2023/04/17 13:44:53;;;;;;;11.30;6.97;;;15.40;99.90;;;;;;5095736;28;20210;-73
2023/04/17 13:47:19;;;;;;;12.53;7.17;;;15.50;99.90;;;;;;5096003;28;20206;-73
2023/04/17 13:49:46;;;;;;;18.83;7.73;;;15.40;99.90;;;;;;5095555;28;20260;-73
2023/04/17 13:52:13;;;;;;;15.97;7.63;;;15.30;99.90;;;;;;5095992;28;20228;-73
2023/04/17 13:54:42;;;;;;;13.27;7.10;;;15.10;99.90;;;;;;5096092;28;20213;-73
2023/04/17 13:57:09;;;;;;;14.50;6.50;;;14.70;99.90;;;;;;5096198;28;20206;-73
2023/04/17 13:59:36;;;;;;;11.97;6.97;;;14.60;99.90;;;;;;5095696;28;20272;-73
2023/04/17 14:02:03;;;;;;;12.40;7.13;;;14.70;99.90;;;;;;5095507;28;20238;-72
2023/04/17 14:04:31;;;;;;;13.97;7.77;;;14.60;99.90;;;;;;5095886;28;20199;-73
2023/04/17 14:06:58;;;;;;;13.13;6.67;;;14.70;99.90;;;;;;5096080;28;20202;-73
2023/04/17 14:09:24;;;;;;;14.63;7.87;;;15.00;99.90;;;;;;5095473;28;20206;-73
2023/04/17 14:11:53;;;;;;;13.97;7.63;;;15.10;99.90;;;;;;5095464;28;20242;-73
2023/04/17 14:14:19;;;;;;;13.83;7.30;;;14.90;99.90;;;;;;5095520;28;20209;-73
2023/04/17 14:16:48;;;;;;;14.17;7.73;;;14.80;99.90;;;;;;5095304;28;20206;-73
2023/04/17 14:19:15;;;;;;;14.47;7.20;;;14.90;99.90;;;;;;5095366;28;20207;-73
2023/04/17 14:21:42;;;;;;;14.73;7.13;;;14.70;99.90;;;;;;5095307;28;20690;-73
2023/04/17 14:24:09;;;;;;;13.47;7.23;;;14.60;99.90;;;;;;5095379;28;20206;-72
2023/04/17 14:26:37;;;;;;;12.80;7.20;;;14.80;99.90;;;;;;5095373;28;20298;-73
2023/04/17 14:29:05;;;;;;;14.20;7.23;;;15.10;99.90;;;;;;5095325;28;20207;-73
2023/04/17 14:31:31;;;;;;;15.63;7.37;;;15.10;99.90;;;;;;5094881;28;20222;-73
2023/04/17 14:33:58;;;;;;;13.70;6.90;;;15.20;99.90;;;;;;5095081;28;20206;-73
2023/04/17 14:36:25;;;;;;;14.17;6.80;;;15.20;99.90;;;;;;5095119;28;20210;-73
2023/04/17 14:38:53;;;;;;;13.47;6.70;;;15.20;99.90;;;;;;5095281;28;20202;-73
2023/04/17 14:41:19;;;;;;;12.80;7.03;;;15.10;99.90;;;;;;5095419;28;20230;-73
2023/04/17 14:43:46;;;;;;;12.77;7.00;;;15.10;99.90;;;;;;5094898;28;20209;-73
2023/04/17 14:46:14;;;;;;;11.07;6.83;;;15.20;99.90;;;;;;5094681;28;20260;-73
2023/04/17 14:48:41;;;;;;;13.73;6.70;;;15.30;99.90;;;;;;5095017;28;20578;-73
2023/04/17 14:51:12;;;;;;;12.50;6.97;;;15.40;99.90;;;;;;5094841;28;20241;-73
2023/04/17 14:53:39;;;;;;;11.67;6.03;;;15.00;99.90;;;;;;5094833;28;20206;-73
2023/04/17 14:56:07;;;;;;;13.57;6.67;;;14.80;99.90;;;;;;5094698;28;20218;-73
2023/04/17 14:58:34;;;;;;;13.20;7.23;;;14.70;99.90;;;;;;5094698;28;20214;-73
2023/04/17 15:01:01;;;;;;;13.17;6.77;;;14.60;99.90;;;;;;5094621;28;20556;-73
2023/04/17 15:03:30;;;;;;;14.80;7.47;;;14.90;99.90;;;;;;5094665;28;20213;-73
2023/04/17 15:05:58;;;;;;;12.13;6.90;;;15.10;99.90;;;;;;5094814;28;20297;-73
2023/04/17 15:08:25;;;;;;;14.90;7.13;;;15.00;99.90;;;;;;5094542;28;20693;-73
2023/04/17 15:10:51;;;;;;;11.47;6.40;;;15.00;99.90;;;;;;5094547;28;20303;-73
2023/04/17 15:13:18;;;;;;;15.67;6.57;;;15.00;99.90;;;;;;5094446;28;20650;-73
2023/04/17 15:15:45;;;;;;;10.37;6.07;;;15.00;99.90;;;;;;5094371;28;20205;-73
2023/04/17 15:18:12;;;;;;;10.67;6.07;;;14.90;99.90;;;;;;5094636;28;20202;-73
2023/04/17 15:20:40;;;;;;;12.83;7.03;;;14.90;99.90;;;;;;5094273;28;20227;-73
2023/04/17 15:23:07;;;;;;;12.33;7.07;;;14.90;99.90;;;;;;5094345;28;20651;-73
2023/04/17 15:25:33;;;;;;;12.03;5.93;;;15.00;99.90;;;;;;5094196;28;20206;-73
2023/04/17 15:28:00;;;;;;;11.50;6.50;;;15.00;99.90;;;;;;5094484;28;20203;-73
2023/04/17 15:30:27;;;;;;;13.13;6.20;;;15.30;99.90;;;;;;5094157;28;20223;-73
2023/04/17 15:32:54;;;;;;;11.23;5.87;;;15.60;99.90;;;;;;5094245;28;20250;-73
2023/04/17 15:35:21;;;;;;;12.80;6.13;;;15.90;99.90;;;;;;5093780;28;20202;-73
2023/04/17 15:37:49;;;;;;;10.23;5.97;;;15.90;99.90;;;;;;5093910;28;20667;-73
2023/04/17 15:40:16;;;;;;;10.17;5.87;;;16.00;99.90;;;;;;5093936;28;20207;-73
2023/04/17 15:42:43;;;;;;;11.10;6.43;;;16.10;99.90;;;;;;5094199;28;20210;-73
2023/04/17 15:45:10;;;;;;;14.23;6.60;;;16.20;99.90;;;;;;5093971;28;20202;-73
2023/04/17 15:47:37;;;;;;;11.33;6.47;;;16.50;99.90;;;;;;5093819;28;20650;-73
2023/04/17 15:50:04;;;;;;;13.80;7.50;;;16.50;99.90;;;;;;5093097;28;20219;-73
2023/04/17 15:52:31;;;;;;;11.80;6.57;;;16.50;99.90;;;;;;5093819;28;20225;-73
2023/04/17 15:54:59;;;;;;;11.60;6.13;;;16.40;99.90;;;;;;5094029;28;20211;-73
2023/04/17 15:57:26;;;;;;;14.13;6.70;;;16.40;99.90;;;;;;5093907;28;20206;-73
2023/04/17 15:59:53;;;;;;;11.47;6.60;;;16.50;99.90;;;;;;5093651;28;20207;-73
2023/04/17 16:02:19;;;;;;;11.60;6.53;;;16.50;99.90;;;;;;5093330;28;20231;-73
2023/04/17 16:04:46;;;;;;;10.07;5.83;;;16.30;99.90;;;;;;5093134;28;20274;-72
2023/04/17 16:07:14;;;;;;;12.83;6.63;;;16.10;99.90;;;;;;5093090;28;20207;-73
2023/04/17 16:09:45;;;;;;;10.83;5.90;;;15.70;99.90;;;;;;5093455;28;20206;-73
2023/04/17 16:12:13;;;;;;;13.53;6.67;;;15.70;99.90;;;;;;5093500;28;20226;-73
2023/04/17 16:14:40;;;;;;;12.63;6.00;;;15.60;99.90;;;;;;5093123;28;20654;-73
2023/04/17 16:17:07;;;;;;;14.97;7.07;;;15.70;99.90;;;;;;5093328;28;20207;-73
2023/04/17 16:19:34;;;;;;;12.80;6.57;;;15.70;99.90;;;;;;5092996;28;20198;-72
2023/04/17 16:22:01;;;;;;;12.20;6.03;;;15.70;99.90;;;;;;5092674;28;20241;-73
2023/04/17 16:24:28;;;;;;;12.37;6.27;;;15.70;99.90;;;;;;5093108;28;20205;-73
2023/04/17 16:26:56;;;;;;;14.43;6.47;;;15.40;99.90;;;;;;5093202;28;20286;-73
2023/04/17 16:29:24;;;;;;;13.10;6.50;;;15.50;99.90;;;;;;5093028;28;20206;-73
2023/04/17 16:31:51;;;;;;;11.50;6.93;;;15.60;99.90;;;;;;5092844;28;20222;-73
2023/04/17 16:34:18;;;;;;;12.13;6.47;;;15.50;99.90;;;;;;5093022;28;20212;-73
2023/04/17 16:36:45;;;;;;;14.63;6.93;;;15.40;99.90;;;;;;5092948;28;20293;-74
2023/04/17 16:39:12;;;;;;;13.20;6.50;;;15.30;99.90;;;;;;5093059;28;20209;-73
2023/04/17 16:41:38;;;;;;;13.33;7.03;;;15.20;99.90;;;;;;5092839;28;20237;-73
2023/04/17 16:44:05;;;;;;;12.57;6.27;;;15.10;99.90;;;;;;5092920;28;20198;-73
2023/04/17 16:46:34;;;;;;;10.00;5.80;;;15.10;99.90;;;;;;5092598;28;20209;-74
2023/04/17 16:49:00;;;;;;;9.40;5.97;;;15.10;99.90;;;;;;5093009;28;20216;-73
2023/04/17 16:51:27;;;;;;;9.77;5.77;;;15.30;99.90;;;;;;5092926;28;20234;-73
2023/04/17 16:53:54;;;;;;;12.87;6.50;;;15.30;99.90;;;;;;5093041;28;20257;-73
2023/04/17 16:56:21;;;;;;;12.17;5.93;;;15.30;99.90;;;;;;5092926;28;20659;-73
2023/04/17 16:58:48;;;;;;;11.10;5.53;;;15.30;99.90;;;;;;5093003;28;20198;-73
2023/04/17 17:01:14;;;;;;;9.03;5.20;;;15.30;99.90;;;;;;5094742;28;20556;-73
2023/04/17 17:03:43;;;;;;;9.40;5.67;;;15.30;99.90;;;;;;5097078;28;20225;-73
2023/04/17 17:06:10;;;;;;;11.57;5.73;;;15.40;99.90;;;;;;5095919;28;20241;-72
2023/04/17 17:08:37;;;;;;;8.30;5.73;;;15.40;99.90;;;;;;5089507;28;20198;-72
2023/04/17 17:11:04;;;;;;;11.27;5.20;;;15.50;99.90;;;;;;5094124;28;20218;-71
2023/04/17 17:13:31;;;;;;;8.17;5.20;;;15.50;99.90;;;;;;5094907;28;20293;-74
2023/04/17 17:15:58;;;;;;;9.40;4.83;;;15.50;99.90;;;;;;5095177;28;20573;-74
2023/04/17 17:18:25;;;;;;;8.97;5.30;;;15.40;99.90;;;;;;5095475;28;20207;-73
2023/04/17 17:20:55;;;;;;;9.20;5.30;;;15.60;99.90;;;;;;5095293;28;20222;-72
2023/04/17 17:23:21;;;;;;;10.83;6.13;;;15.60;99.90;;;;;;5095285;28;20313;-70
2023/04/17 17:25:48;;;;;;;10.40;5.10;;;15.80;99.90;;;;;;5095067;28;20686;-72
2023/04/17 17:28:15;;;;;;;10.37;5.43;;;15.90;99.90;;;;;;5092713;28;20202;-74
2023/04/17 17:30:42;;;;;;;8.90;5.67;;;16.00;99.90;;;;;;5094701;28;20226;-74
2023/04/17 17:33:08;;;;;;;9.20;5.07;;;16.00;99.90;;;;;;5095013;28;20203;-71
2023/04/17 17:35:35;;;;;;;9.60;5.07;;;15.90;99.90;;;;;;5094991;28;20207;-71
2023/04/17 17:38:03;;;;;;;9.80;5.20;;;15.80;99.90;;;;;;5077993;28;20207;-71
2023/04/17 17:40:30;;;;;;;8.67;5.03;;;15.80;99.90;;;;;;5075374;28;20579;-73
2023/04/17 17:42:57;;;;;;;9.77;5.47;;;15.60;99.90;;;;;;5075846;28;20239;-73
2023/04/17 17:45:24;;;;;;;10.20;5.53;;;15.40;99.90;;;;;;5075937;28;20214;-74
2023/04/17 17:47:50;;;;;;;10.07;5.40;;;15.30;99.90;;;;;;5075946;28;20207;-74
2023/04/17 17:50:17;;;;;;;8.53;5.50;;;15.20;99.90;;;;;;5075587;28;20713;-73
2023/04/17 17:52:44;;;;;;;10.93;6.30;;;15.10;99.90;;;;;;5075871;28;20203;-74
2023/04/17 17:55:15;;;;;;;10.47;5.63;;;15.10;99.90;;;;;;5075829;28;20632;-73
2023/04/17 17:57:43;;;;;;;12.13;5.33;;;15.10;99.90;;;;;;5076135;28;20256;-74
2023/04/17 18:00:11;;;;;;;9.80;5.07;;;15.00;99.90;;;;;;5075758;28;20633;-75
2023/04/17 18:02:38;;;;;;;10.77;5.97;;;14.70;99.90;;;;;;5075742;28;20277;-74
2023/04/17 18:05:05;;;;;;;10.40;5.80;;;14.60;99.90;;;;;;5075603;28;20210;-74
2023/04/17 18:07:32;;;;;;;8.87;5.23;;;14.80;99.90;;;;;;5075642;28;20294;-73
2023/04/17 18:09:59;;;;;;;10.87;4.53;;;14.80;99.90;;;;;;5073555;28;20203;-72
2023/04/17 18:12:27;;;;;;;12.17;5.43;;;14.70;99.90;;;;;;5093562;28;20198;-73
2023/04/17 18:14:54;;;;;;;10.47;4.97;;;14.70;99.90;;;;;;5095433;28;20206;-72
2023/04/17 18:17:21;;;;;;;9.40;5.00;;;14.50;99.90;;;;;;5095258;28;20198;-72
2023/04/17 18:19:49;;;;;;;8.77;5.50;;;14.50;99.90;;;;;;5094144;28;20206;-75
2023/04/17 18:22:15;;;;;;;10.53;5.43;;;14.50;99.90;;;;;;5089371;28;20284;-76
2023/04/17 18:24:43;;;;;;;12.27;5.40;;;14.40;99.90;;;;;;5094259;28;20245;-76
2023/04/17 18:27:10;;;;;;;11.17;5.57;;;14.40;99.90;;;;;;5093895;28;20209;-75
2023/04/17 18:29:38;;;;;;;10.10;5.70;;;14.30;99.90;;;;;;5093424;28;20578;-76
2023/04/17 18:32:05;;;;;;;9.47;5.33;;;14.10;99.90;;;;;;5092594;28;20590;-74
2023/04/17 18:34:32;;;;;;;12.40;5.83;;;14.10;99.90;;;;;;5093398;28;20234;-72
2023/04/17 18:36:59;;;;;;;12.67;5.77;;;14.20;99.90;;;;;;5093156;28;20214;-75
2023/04/17 18:39:26;;;;;;;9.07;5.00;;;14.00;99.90;;;;;;5093355;28;20202;-74
2023/04/17 18:41:53;;;;;;;9.93;5.47;;;13.80;99.90;;;;;;5092088;28;20227;-73
2023/04/17 18:44:21;;;;;;;10.87;5.93;;;13.60;99.90;;;;;;5092986;28;20233;-72
2023/04/17 18:46:49;;;;;;;10.23;5.73;;;13.50;99.90;;;;;;5093239;28;20301;-70
2023/04/17 18:49:16;;;;;;;9.40;5.67;;;13.60;99.90;;;;;;5093775;28;20560;-71
2023/04/17 18:51:46;;;;;;;8.37;4.97;;;13.70;99.90;;;;;;5091837;28;20694;-72
2023/04/17 18:54:14;;;;;;;10.50;5.20;;;13.70;99.90;;;;;;5093677;28;20209;-72
2023/04/17 18:56:40;;;;;;;10.30;5.67;;;13.70;99.90;;;;;;5093524;28;20198;-73
2023/04/17 18:59:07;;;;;;;10.13;5.87;;;13.60;99.90;;;;;;5092975;28;20210;-73
2023/04/17 19:01:34;;;;;;;10.73;5.07;;;13.40;99.90;;;;;;5092737;28;20219;-73
2023/04/17 19:04:03;;;;;;;7.73;5.40;;;13.40;99.90;;;;;;5093122;28;20293;-74
2023/04/17 19:06:30;;;;;;;9.80;5.97;;;13.30;99.90;;;;;;5093773;28;20259;-74
2023/04/17 19:08:57;;;;;;;12.43;6.17;;;13.30;99.90;;;;;;5094549;28;20234;-74
2023/04/17 19:11:24;;;;;;;10.20;5.57;;;13.20;99.90;;;;;;5094625;28;20229;-75
2023/04/17 19:13:51;;;;;;;9.47;5.97;;;13.20;99.90;;;;;;5094613;28;20293;-75
2023/04/17 19:16:17;;;;;;;9.60;5.77;;;13.10;99.90;;;;;;5094475;28;20202;-75
2023/04/17 19:18:44;;;;;;;10.70;5.87;;;13.00;99.90;;;;;;5094273;28;20653;-75
2023/04/17 19:21:14;;;;;;;9.37;5.80;;;12.90;99.90;;;;;;5094198;28;20254;-75
2023/04/17 19:23:41;;;;;;;10.27;5.90;;;12.70;99.90;;;;;;5093592;28;20230;-75
2023/04/17 19:26:08;;;;;;;9.47;5.50;;;12.60;99.90;;;;;;5094396;28;20209;-76
2023/04/17 19:28:35;;;;;;;11.60;6.77;;;12.50;99.90;;;;;;5094257;28;20202;-76
2023/04/17 19:31:03;;;;;;;10.53;5.77;;;12.40;99.90;;;;;;5093617;28;20223;-76
2023/04/17 19:33:30;;;;;;;10.90;5.80;;;12.20;99.90;;;;;;5094052;28;20264;-78
2023/04/17 19:35:57;;;;;;;8.87;5.30;;;12.10;99.90;;;;;;5094015;28;20207;-77
2023/04/17 19:38:26;;;;;;;10.07;5.40;;;11.90;99.90;;;;;;5094177;28;20359;-76
2023/04/17 19:41:13;;;;;;;12.43;6.40;;;11.80;99.90;;;;;;5093762;28;20726;-76
2023/04/17 19:43:40;;;;;;;9.23;5.40;;;11.80;99.90;;;;;;5093971;28;20313;-76
2023/04/17 19:46:08;;;;;;;11.57;6.47;;;11.70;99.90;;;;;;5093536;28;20644;-75
2023/04/17 19:48:34;;;;;;;12.37;6.77;;;11.60;99.90;;;;;;5093389;28;20532;-75
2023/04/17 19:51:03;;;;;;;11.27;6.30;;;11.50;99.90;;;;;;5093575;28;20222;-76
2023/04/17 19:53:33;;;;;;;12.23;5.60;;;11.40;99.90;;;;;;5093286;28;20683;-76
2023/04/17 19:56:00;;;;;;;10.73;6.00;;;11.30;99.90;;;;;;5093402;28;20212;-75
2023/04/17 19:58:27;;;;;;;9.00;5.80;;;11.30;99.90;;;;;;5093211;28;20649;-76
2023/04/17 20:00:54;;;;;;;11.40;6.40;;;11.20;99.90;;;;;;5093296;28;20222;-75
2023/04/17 20:03:21;;;;;;;9.93;6.03;;;11.10;99.90;;;;;;5093379;28;20566;-73
2023/04/17 20:05:48;;;;;;;11.70;6.20;;;11.00;99.90;;;;;;5093621;28;20207;-73
2023/04/17 20:08:15;;;;;;;10.93;6.10;;;10.80;99.90;;;;;;5093527;28;20729;-75
2023/04/17 20:10:43;;;;;;;10.97;6.20;;;10.80;99.90;;;;;;5093226;28;20218;-74
2023/04/17 20:13:11;;;;;;;11.53;6.90;;;10.70;99.90;;;;;;5093465;28;20293;-76
2023/04/17 20:15:38;;;;;;;12.90;6.30;;;10.70;99.90;;;;;;5093504;28;20206;-73